This is the latest recevied weather packets stored in our database for station/object KA5FVT. If no packets are shown the sender has not sent any weather packets the latest 10 day(s).
| Time | Temp. | Humidity | Pressure | Rain* | Wind** | Luminosity | Snow |
|---|---|---|---|---|---|---|---|
| 1777752566 | 25° C | 45% | 1018.8 hPa | 0 mm | - | - | - |
| 1777750466 | 24.44° C | 47% | 1019.3 hPa | 0 mm | - | - | - |
| 1777749566 | 23.89° C | 46% | 1019.4 hPa | 0 mm | - | - | - |
| 1777748666 | 23.89° C | 45% | 1019.5 hPa | 0 mm | - | - | - |
| 1777748069 | 23.33° C | 49% | 1019.6 hPa | 0 mm | - | - | - |
| 1777743566 | 22.78° C | 54% | 1020.2 hPa | 0 mm | - | - | - |
| 1777742369 | 22.22° C | 54% | 1020.5 hPa | 0 mm | - | - | - |
| 1777742066 | 22.22° C | 54% | 1020.5 hPa | 0 mm | - | - | - |
| 1777737567 | 18.89° C | 69% | 1020.3 hPa | 0 mm | - | - | - |
| 1777737266 | 18.89° C | 69% | 1020.2 hPa | 0 mm | - | - | - |
| 1777736667 | 18.33° C | 71% | 1020.3 hPa | 0 mm | - | - | - |
| 1777734866 | 17.22° C | 78% | 1020.2 hPa | 0 mm | - | - | - |
| 1777733667 | 16.67° C | 79% | 1020.3 hPa | 0 mm | - | - | - |
| 1777733066 | 16.11° C | 80% | 1020.3 hPa | 0 mm | - | - | - |
| 1777729766 | 14.44° C | 88% | 1019.8 hPa | 0 mm | - | - | - |
| 1777728866 | 13.89° C | 90% | 1019.6 hPa | 0 mm | - | - | - |
| 1777726466 | 12.78° C | 92% | 1019 hPa | 0 mm | - | - | - |
| 1777726170 | 12.22° C | 92% | 1018.9 hPa | 0 mm | - | - | - |
| 1777725867 | 12.22° C | 92% | 1018.7 hPa | 0 mm | - | - | - |
| 1777724666 | 12.22° C | 93% | 1018.6 hPa | 0 mm | - | - | - |
| 1777724069 | 12.22° C | 93% | 1018.4 hPa | 0 mm | - | - | - |
| 1777722866 | 12.22° C | 94% | 1018.1 hPa | 0 mm | - | - | - |
| 1777722566 | 12.22° C | 94% | 1018 hPa | 0 mm | - | - | - |
| 1777721369 | 11.67° C | 94% | 1017.9 hPa | 0 mm | - | - | - |
| 1777718966 | 12.22° C | 93% | 1017.5 hPa | 0 mm | - | - | - |
* Rain latest hour (hover to see other rain measurements)
** Current wind speed in m/s (hover to see current wind gust speed)